createdAt,value
2023-03-05T00:00:00.321Z,100.00
2023-03-05T00:01:34.558Z,100.00
2023-03-05T00:03:07.730Z,100.00
2023-03-05T00:04:42.404Z,100.00
2023-03-05T00:06:14.874Z,100.00
2023-03-05T00:07:48.977Z,100.00
2023-03-05T00:09:22.598Z,100.00
2023-03-05T00:10:59.726Z,100.00
2023-03-05T00:12:33.085Z,100.00
2023-03-05T00:14:07.161Z,100.00
2023-03-05T00:15:43.303Z,100.00
2023-03-05T00:17:16.533Z,100.00
2023-03-05T00:18:50.466Z,100.00
2023-03-05T00:20:25.065Z,100.00
2023-03-05T00:21:58.490Z,100.00
2023-03-05T00:23:30.889Z,100.00
2023-03-05T00:25:04.784Z,100.00
2023-03-05T00:26:40.196Z,100.00
2023-03-05T00:28:12.872Z,100.00
2023-03-05T00:29:46.183Z,100.00
2023-03-05T00:31:20.370Z,100.00
2023-03-05T00:32:54.042Z,100.00
2023-03-05T00:34:28.397Z,100.00
2023-03-05T00:36:07.229Z,100.00
2023-03-05T00:37:40.396Z,100.00
2023-03-05T00:39:14.661Z,100.00
2023-03-05T00:40:46.927Z,100.00
2023-03-05T00:42:20.143Z,100.00
2023-03-05T00:43:52.430Z,100.00
2023-03-05T00:45:25.671Z,100.00
2023-03-05T00:46:59.274Z,100.00
2023-03-05T00:48:31.614Z,100.00
2023-03-05T00:50:08.017Z,100.00
2023-03-05T00:51:41.802Z,100.00
2023-03-05T00:53:15.204Z,100.00
2023-03-05T00:54:48.371Z,100.00
2023-03-05T00:56:21.844Z,100.00
2023-03-05T00:57:54.177Z,100.00
2023-03-05T00:59:27.749Z,100.00
2023-03-05T01:01:02.949Z,100.00
2023-03-05T01:02:36.198Z,100.00
2023-03-05T01:04:09.783Z,100.00
2023-03-05T01:05:43.178Z,100.00
2023-03-05T01:07:17.897Z,100.00
2023-03-05T01:08:51.359Z,100.00
2023-03-05T01:10:26.603Z,100.00
2023-03-05T01:12:00.318Z,100.00
2023-03-05T01:13:33.508Z,100.00
2023-03-05T01:15:07.774Z,100.00
2023-03-05T01:16:41.094Z,100.00
2023-03-05T01:18:13.564Z,100.00
2023-03-05T01:19:46.684Z,100.00
2023-03-05T01:21:20.305Z,100.00
2023-03-05T01:22:55.187Z,100.00
2023-03-05T01:24:28.751Z,100.00
2023-03-05T01:26:01.886Z,100.00
2023-03-05T01:27:35.392Z,100.00
2023-03-05T01:29:08.714Z,100.00
2023-03-05T01:30:41.302Z,100.00
2023-03-05T01:32:14.678Z,100.00
2023-03-05T01:33:48.097Z,100.00
2023-03-05T01:35:24.358Z,100.00
2023-03-05T01:36:57.643Z,100.00
2023-03-05T01:38:31.300Z,100.00
2023-03-05T01:40:06.341Z,100.00
2023-03-05T01:41:39.871Z,100.00
2023-03-05T01:43:27.928Z,100.00
2023-03-05T01:45:03.941Z,100.00
2023-03-05T01:46:38.865Z,100.00
2023-03-05T01:48:11.192Z,100.00
2023-03-05T01:49:44.483Z,100.00
2023-03-05T01:51:17.580Z,100.00
2023-03-05T01:52:54.049Z,100.00
2023-03-05T01:54:34.007Z,100.00
2023-03-05T01:56:07.834Z,100.00
2023-03-05T01:57:45.360Z,100.00
2023-03-05T01:59:19.273Z,100.00
2023-03-05T02:00:55.405Z,100.00
2023-03-05T02:02:29.030Z,100.00
2023-03-05T02:04:02.564Z,100.00
2023-03-05T02:05:38.179Z,100.00
2023-03-05T02:07:13.041Z,100.00
2023-03-05T02:08:46.890Z,100.00
2023-03-05T02:10:23.777Z,100.00
2023-03-05T02:11:56.991Z,100.00
2023-03-05T02:13:34.164Z,100.00
2023-03-05T02:15:09.217Z,100.00
2023-03-05T02:16:43.074Z,100.00
2023-03-05T02:18:17.027Z,100.00
2023-03-05T02:19:52.504Z,100.00
2023-03-05T02:21:36.830Z,100.00
2023-03-05T02:23:10.238Z,100.00
2023-03-05T02:24:43.500Z,100.00
2023-03-05T02:26:15.742Z,100.00
2023-03-05T02:27:56.025Z,100.00
2023-03-05T02:29:30.636Z,100.00
2023-03-05T02:31:03.971Z,100.00
2023-03-05T02:32:37.224Z,100.00
2023-03-05T02:34:11.879Z,100.00
2023-03-05T02:35:46.589Z,100.00
2023-03-05T02:37:21.333Z,100.00
2023-03-05T02:38:59.204Z,100.00
2023-03-05T02:40:31.964Z,100.00
2023-03-05T02:42:05.386Z,100.00
2023-03-05T02:43:39.310Z,100.00
2023-03-05T02:45:14.153Z,100.00
2023-03-05T02:46:47.790Z,100.00
2023-03-05T02:48:20.082Z,100.00
2023-03-05T02:49:53.426Z,100.00
2023-03-05T02:51:26.620Z,100.00
2023-03-05T02:53:02.243Z,100.00
2023-03-05T02:54:35.991Z,100.00
2023-03-05T02:56:09.250Z,100.00
2023-03-05T02:57:42.602Z,100.00
2023-03-05T02:59:16.053Z,100.00
2023-03-05T03:00:49.395Z,100.00
2023-03-05T03:02:22.901Z,100.00
2023-03-05T03:03:55.081Z,100.00
2023-03-05T03:05:28.621Z,100.00
2023-03-05T03:07:01.748Z,100.00
2023-03-05T03:08:36.486Z,100.00
2023-03-05T03:10:09.900Z,100.00
2023-03-05T03:11:43.559Z,100.00
2023-03-05T03:13:15.636Z,100.00
2023-03-05T03:14:48.944Z,100.00
2023-03-05T03:16:22.236Z,100.00
2023-03-05T03:17:56.097Z,100.00
2023-03-05T03:19:29.372Z,100.00
2023-03-05T03:21:02.948Z,100.00
2023-03-05T03:22:36.188Z,100.00
2023-03-05T03:24:11.052Z,100.00
2023-03-05T03:25:43.354Z,100.00
2023-03-05T03:27:16.571Z,100.00
2023-03-05T03:28:49.700Z,100.00
2023-03-05T03:30:23.228Z,100.00
2023-03-05T03:31:55.478Z,100.00
2023-03-05T03:33:28.647Z,100.00
2023-03-05T03:35:01.293Z,100.00
2023-03-05T03:36:35.902Z,100.00
2023-03-05T03:38:08.179Z,100.00
2023-03-05T03:39:42.790Z,100.00
2023-03-05T03:41:18.944Z,100.00
2023-03-05T03:42:53.202Z,100.00
2023-03-05T03:44:26.386Z,100.00
2023-03-05T03:45:59.578Z,100.00
2023-03-05T03:47:32.947Z,100.00
2023-03-05T03:49:06.510Z,100.00
2023-03-05T03:50:39.478Z,100.00
2023-03-05T03:52:12.730Z,100.00
2023-03-05T03:53:46.023Z,100.00
2023-03-05T03:55:19.906Z,100.00
2023-03-05T03:56:53.768Z,100.00
2023-03-05T03:58:27.344Z,100.00
2023-03-05T04:00:00.953Z,100.00
2023-03-05T04:01:34.488Z,100.00
2023-03-05T04:03:07.148Z,100.00
2023-03-05T04:04:40.449Z,100.00
2023-03-05T04:06:13.772Z,100.00
2023-03-05T04:07:47.188Z,100.00
2023-03-05T04:09:19.285Z,100.00
2023-03-05T04:10:53.856Z,100.00
2023-03-05T04:12:26.306Z,100.00
2023-03-05T04:13:59.803Z,100.00
2023-03-05T04:15:32.141Z,100.00
2023-03-05T04:17:05.420Z,100.00
2023-03-05T04:18:38.566Z,100.00
2023-03-05T04:20:13.543Z,100.00
2023-03-05T04:21:46.707Z,100.00
2023-03-05T04:23:20.017Z,100.00
2023-03-05T04:24:53.182Z,100.00
2023-03-05T04:26:28.259Z,100.00
2023-03-05T04:28:01.473Z,100.00
2023-03-05T04:29:36.914Z,100.00
2023-03-05T04:31:10.116Z,100.00
2023-03-05T04:32:43.935Z,100.00
2023-03-05T04:34:17.204Z,100.00
2023-03-05T04:35:50.423Z,100.00
2023-03-05T04:37:22.857Z,100.00
2023-03-05T04:38:56.510Z,100.00
2023-03-05T04:40:28.885Z,100.00
2023-03-05T04:42:03.491Z,100.00
2023-03-05T04:43:36.651Z,100.00
2023-03-05T04:45:10.907Z,100.00
2023-03-05T04:46:44.267Z,100.00
2023-03-05T04:48:17.105Z,100.00
2023-03-05T04:49:50.166Z,100.00
2023-03-05T04:51:23.895Z,100.00
2023-03-05T04:52:57.323Z,100.00
2023-03-05T04:54:30.480Z,100.00
2023-03-05T04:56:03.672Z,100.00
2023-03-05T04:57:38.874Z,100.00
2023-03-05T04:59:12.310Z,100.00
2023-03-05T05:00:45.704Z,100.00
2023-03-05T05:02:17.877Z,100.00
2023-03-05T05:03:51.560Z,100.00
2023-03-05T05:05:26.779Z,100.00
2023-03-05T05:07:00.805Z,100.00
2023-03-05T05:08:34.292Z,100.00
2023-03-05T05:10:10.363Z,100.00
2023-03-05T05:11:43.484Z,100.00
2023-03-05T05:13:18.017Z,100.00
2023-03-05T05:14:51.161Z,100.00
2023-03-05T05:16:24.849Z,100.00
2023-03-05T05:17:57.979Z,100.00
2023-03-05T05:19:31.358Z,100.00
2023-03-05T05:21:09.265Z,100.00
2023-03-05T05:22:43.289Z,100.00
2023-03-05T05:24:16.428Z,100.00
2023-03-05T05:25:57.629Z,100.00
2023-03-05T05:27:30.878Z,100.00
2023-03-05T05:29:05.912Z,100.00
2023-03-05T05:30:39.720Z,100.00
2023-03-05T05:32:13.344Z,100.00
2023-03-05T05:33:49.597Z,100.00
2023-03-05T05:35:23.551Z,100.00
2023-03-05T05:36:56.807Z,100.00
2023-03-05T05:38:30.101Z,100.00
2023-03-05T05:40:04.390Z,100.00
2023-03-05T05:41:37.837Z,100.00
2023-03-05T05:43:10.462Z,100.00
2023-03-05T05:44:45.054Z,100.00
2023-03-05T05:46:20.652Z,100.00
2023-03-05T05:47:53.110Z,100.00
2023-03-05T05:49:26.691Z,100.00
2023-03-05T05:51:00.279Z,100.00
2023-03-05T05:52:33.443Z,100.00
2023-03-05T05:54:07.271Z,100.00
2023-03-05T05:55:41.463Z,100.00
2023-03-05T05:57:14.965Z,100.00
2023-03-05T05:58:49.472Z,100.00
2023-03-05T06:00:24.933Z,100.00
2023-03-05T06:01:58.221Z,100.00
2023-03-05T06:03:31.162Z,100.00
2023-03-05T06:05:04.424Z,100.00
2023-03-05T06:06:37.730Z,100.00
2023-03-05T06:08:11.205Z,100.00
2023-03-05T06:09:43.506Z,100.00
2023-03-05T06:11:19.251Z,100.00
2023-03-05T06:12:53.113Z,100.00
2023-03-05T06:14:26.341Z,100.00
2023-03-05T06:16:03.485Z,100.00
2023-03-05T06:17:36.953Z,100.00
2023-03-05T06:19:12.733Z,100.00
2023-03-05T06:20:44.932Z,100.00
2023-03-05T06:22:18.087Z,100.00
2023-03-05T06:23:52.526Z,100.00
2023-03-05T06:25:25.881Z,100.00
2023-03-05T06:26:59.154Z,100.00
2023-03-05T06:28:31.783Z,100.00
2023-03-05T06:30:05.612Z,100.00
2023-03-05T06:31:40.466Z,100.00
2023-03-05T06:33:12.924Z,100.00
2023-03-05T06:34:46.219Z,100.00
2023-03-05T06:36:21.436Z,100.00
2023-03-05T06:37:54.705Z,100.00
2023-03-05T06:39:27.879Z,100.00
2023-03-05T06:41:02.761Z,100.00
2023-03-05T06:42:36.152Z,100.00
2023-03-05T06:44:09.699Z,100.00
2023-03-05T06:45:41.894Z,100.00
2023-03-05T06:47:16.522Z,100.00
2023-03-05T06:48:50.642Z,100.00
2023-03-05T06:50:24.280Z,100.00
2023-03-05T06:51:56.512Z,100.00
2023-03-05T06:53:29.790Z,100.00
2023-03-05T06:55:03.007Z,100.00
2023-03-05T06:56:38.610Z,100.00
2023-03-05T06:58:11.928Z,100.00
2023-03-05T06:59:45.106Z,100.00
2023-03-05T07:01:18.354Z,100.00
2023-03-05T07:02:53.126Z,100.00
2023-03-05T07:04:26.343Z,100.00
2023-03-05T07:05:59.938Z,100.00
2023-03-05T07:07:34.098Z,100.00
2023-03-05T07:09:08.603Z,100.00
2023-03-05T07:10:43.034Z,100.00
2023-03-05T07:12:16.740Z,100.00
2023-03-05T07:13:50.826Z,100.00
2023-03-05T07:15:24.287Z,100.00
2023-03-05T07:16:56.506Z,100.00
2023-03-05T07:18:31.211Z,100.00
2023-03-05T07:20:04.962Z,100.00
2023-03-05T07:21:39.971Z,100.00
2023-03-05T07:23:13.383Z,100.00
2023-03-05T07:24:46.514Z,100.00
2023-03-05T07:26:19.710Z,100.00
2023-03-05T07:27:53.003Z,100.00
2023-03-05T07:29:27.623Z,100.00
2023-03-05T07:31:02.746Z,100.00
2023-03-05T07:32:37.087Z,100.00
2023-03-05T07:34:12.529Z,100.00
2023-03-05T07:35:45.730Z,100.00
2023-03-05T07:37:19.175Z,100.00
2023-03-05T07:38:52.287Z,100.00
2023-03-05T07:40:25.791Z,100.00
2023-03-05T07:41:59.311Z,100.00
2023-03-05T07:43:37.698Z,100.00
2023-03-05T07:45:11.963Z,100.00
2023-03-05T07:46:45.951Z,100.00
2023-03-05T07:48:21.511Z,100.00
2023-03-05T07:49:56.376Z,100.00
2023-03-05T07:51:30.166Z,100.00
2023-03-05T07:53:03.527Z,100.00
2023-03-05T07:54:39.877Z,100.00
2023-03-05T07:56:13.160Z,100.00
2023-03-05T07:57:46.323Z,100.00
2023-03-05T07:59:19.650Z,100.00
2023-03-05T08:00:53.238Z,100.00
2023-03-05T08:02:26.586Z,100.00
2023-03-05T08:04:03.111Z,100.00
2023-03-05T08:05:43.342Z,100.00
2023-03-05T08:07:17.267Z,100.00
2023-03-05T08:08:50.523Z,100.00
2023-03-05T08:10:23.643Z,100.00
2023-03-05T08:11:57.284Z,100.00
2023-03-05T08:13:30.656Z,100.00
2023-03-05T08:15:03.883Z,100.00
2023-03-05T08:16:37.190Z,100.00
2023-03-05T08:18:10.967Z,100.00
2023-03-05T08:19:44.565Z,100.00
2023-03-05T08:21:21.237Z,100.00
2023-03-05T08:22:54.609Z,100.00
2023-03-05T08:24:29.908Z,100.00
2023-03-05T08:26:03.059Z,100.00
2023-03-05T08:27:40.423Z,100.00
2023-03-05T08:29:13.857Z,100.00
2023-03-05T08:30:47.619Z,100.00
2023-03-05T08:32:20.836Z,100.00
2023-03-05T08:33:56.028Z,100.00
2023-03-05T08:35:29.275Z,100.00
2023-03-05T08:37:04.577Z,100.00
2023-03-05T08:38:37.946Z,100.00
2023-03-05T08:40:12.651Z,100.00
2023-03-05T08:41:45.866Z,100.00
2023-03-05T08:43:19.305Z,100.00
2023-03-05T08:44:52.729Z,100.00
2023-03-05T08:46:26.297Z,100.00
2023-03-05T08:47:59.422Z,100.00
2023-03-05T08:49:32.861Z,100.00
2023-03-05T08:51:07.261Z,100.00
2023-03-05T08:52:41.825Z,100.00
2023-03-05T08:54:15.031Z,100.00
2023-03-05T08:55:55.521Z,100.00
2023-03-05T08:57:28.723Z,100.00
2023-03-05T08:59:01.894Z,100.00
2023-03-05T09:00:35.033Z,100.00
2023-03-05T09:02:08.737Z,100.00
2023-03-05T09:03:42.325Z,100.00
2023-03-05T09:05:15.529Z,100.00
2023-03-05T09:06:48.726Z,100.00
2023-03-05T09:08:23.665Z,100.00
2023-03-05T09:09:56.842Z,100.00
2023-03-05T09:11:30.021Z,100.00
2023-03-05T09:13:04.203Z,100.00
2023-03-05T09:14:37.641Z,100.00
2023-03-05T09:16:13.699Z,100.00
2023-03-05T09:17:47.207Z,100.00
2023-03-05T09:19:20.299Z,100.00
2023-03-05T09:20:55.664Z,100.00
2023-03-05T09:22:30.510Z,100.00
2023-03-05T09:24:05.448Z,100.00
2023-03-05T09:25:40.825Z,100.00
2023-03-05T09:27:14.281Z,100.00
2023-03-05T09:28:48.515Z,100.00
2023-03-05T09:30:22.329Z,100.00
2023-03-05T09:31:55.750Z,100.00
2023-03-05T09:33:29.198Z,100.00
2023-03-05T09:35:02.741Z,100.00
2023-03-05T09:36:36.264Z,100.00
2023-03-05T09:38:10.885Z,100.00
2023-03-05T09:39:45.803Z,100.00
2023-03-05T09:41:31.293Z,100.00
2023-03-05T09:43:13.028Z,100.00
2023-03-05T09:44:56.754Z,100.00
2023-03-05T09:46:41.999Z,100.00
2023-03-05T09:48:20.555Z,100.00
2023-03-05T09:50:02.485Z,100.00
2023-03-05T09:51:40.448Z,100.00
2023-03-05T09:53:33.197Z,100.00
2023-03-05T09:55:14.701Z,100.00
2023-03-05T09:56:51.583Z,100.00
2023-03-05T09:58:35.853Z,100.00
2023-03-05T10:00:22.848Z,100.00
2023-03-05T10:01:59.165Z,100.00
2023-03-05T10:03:45.784Z,100.00
2023-03-05T10:05:24.121Z,100.00
2023-03-05T10:07:01.683Z,100.00
2023-03-05T10:08:47.412Z,100.00
2023-03-05T10:10:27.066Z,100.00
2023-03-05T10:12:04.522Z,100.00
2023-03-05T10:13:40.542Z,100.00
2023-03-05T10:15:16.314Z,100.00
2023-03-05T10:17:02.129Z,100.00
2023-03-05T10:18:42.580Z,100.00
2023-03-05T10:20:42.551Z,95.33
2023-03-05T10:22:21.750Z,100.00
2023-03-05T10:24:12.092Z,100.00
2023-03-05T10:25:58.202Z,93.12
2023-03-05T10:27:44.048Z,95.00
2023-03-05T10:29:37.500Z,97.00
2023-03-05T10:31:26.173Z,91.71
2023-03-05T10:33:13.404Z,97.13
2023-03-05T10:35:20.857Z,95.25
2023-03-05T10:37:13.073Z,97.14
2023-03-05T10:39:01.311Z,98.08
2023-03-05T10:40:39.958Z,99.33
2023-03-05T10:42:24.748Z,97.77
2023-03-05T10:44:02.898Z,92.00
2023-03-05T10:45:40.815Z,95.41
2023-03-05T10:47:20.891Z,97.92
2023-03-05T10:48:59.301Z,95.10
2023-03-05T10:50:38.115Z,100.00
2023-03-05T10:52:18.467Z,97.82
2023-03-05T10:53:57.571Z,96.13
2023-03-05T10:55:30.713Z,100.00
2023-03-05T10:57:06.045Z,95.09
2023-03-05T10:58:40.655Z,92.17
2023-03-05T11:00:20.949Z,88.05
2023-03-05T11:02:05.338Z,82.45
2023-03-05T11:03:51.869Z,83.08
2023-03-05T11:05:46.497Z,81.92
2023-03-05T11:07:39.006Z,91.13
2023-03-05T11:09:28.308Z,88.78
2023-03-05T11:11:16.592Z,91.70
2023-03-05T11:12:50.111Z,94.82
2023-03-05T11:14:33.188Z,84.78
2023-03-05T11:16:08.969Z,90.45
2023-03-05T11:17:44.720Z,92.70
2023-03-05T11:19:21.828Z,86.84
2023-03-05T11:21:09.414Z,82.78
2023-03-05T11:22:42.534Z,88.43
2023-03-05T11:24:18.296Z,85.74
2023-03-05T11:25:58.278Z,89.52
2023-03-05T11:27:36.665Z,83.27
2023-03-05T11:29:19.573Z,77.87
2023-03-05T11:31:00.609Z,83.41
2023-03-05T11:32:34.306Z,87.95
2023-03-05T11:34:09.381Z,91.45
2023-03-05T11:35:44.493Z,88.15
2023-03-05T11:37:25.401Z,79.27
2023-03-05T11:39:00.822Z,86.43
2023-03-05T11:40:37.094Z,84.41
2023-03-05T11:42:15.296Z,80.43
2023-03-05T11:43:52.164Z,80.25
2023-03-05T11:45:27.680Z,82.74
2023-03-05T11:47:06.228Z,78.09
2023-03-05T11:48:41.960Z,77.01
2023-03-05T11:50:22.303Z,73.07
2023-03-05T11:52:01.909Z,73.90
2023-03-05T11:53:37.086Z,66.89
2023-03-05T11:55:16.307Z,66.54
2023-03-05T11:56:50.271Z,73.54
2023-03-05T11:58:30.496Z,76.32
2023-03-05T12:00:11.623Z,69.43
2023-03-05T12:01:48.084Z,65.17
2023-03-05T12:03:26.411Z,72.25
2023-03-05T12:05:03.351Z,70.27
2023-03-05T12:06:41.053Z,64.71
2023-03-05T12:08:17.056Z,66.93
2023-03-05T12:09:52.212Z,67.03
2023-03-05T12:11:29.071Z,69.21
2023-03-05T12:13:07.995Z,70.61
2023-03-05T12:14:46.602Z,66.44
2023-03-05T12:16:29.385Z,64.11
2023-03-05T12:18:15.128Z,62.69
2023-03-05T12:19:58.396Z,63.10
2023-03-05T12:21:37.083Z,65.28
2023-03-05T12:23:15.203Z,62.38
2023-03-05T12:24:48.546Z,67.31
2023-03-05T12:26:59.800Z,69.21
2023-03-05T12:28:58.590Z,68.62
2023-03-05T12:30:59.145Z,68.72
2023-03-05T12:33:02.695Z,69.05
2023-03-05T12:34:51.586Z,66.12
2023-03-05T12:36:36.825Z,69.64
2023-03-05T12:38:31.751Z,67.79
2023-03-05T12:40:21.699Z,67.21
2023-03-05T12:41:56.697Z,66.66
2023-03-05T12:43:32.245Z,71.43
2023-03-05T12:45:25.966Z,68.50
2023-03-05T12:47:23.931Z,68.39
2023-03-05T12:48:57.510Z,70.42
2023-03-05T12:50:52.686Z,68.79
2023-03-05T12:52:29.563Z,69.25
2023-03-05T12:54:30.016Z,64.78
2023-03-05T12:56:12.849Z,68.84
2023-03-05T12:57:47.726Z,68.63
2023-03-05T12:59:24.526Z,69.97
2023-03-05T13:01:05.545Z,71.51
2023-03-05T13:02:42.304Z,68.64
2023-03-05T13:04:20.115Z,71.53
2023-03-05T13:05:57.366Z,72.74
2023-03-05T13:07:30.522Z,73.34
2023-03-05T13:09:08.438Z,73.83
2023-03-05T13:10:42.305Z,74.40
2023-03-05T13:12:16.150Z,75.05
2023-03-05T13:13:50.488Z,75.87
2023-03-05T13:15:25.467Z,75.91
2023-03-05T13:16:59.238Z,75.06
2023-03-05T13:18:34.077Z,75.36
2023-03-05T13:20:30.128Z,72.93
2023-03-05T13:22:11.197Z,76.88
2023-03-05T13:23:49.309Z,74.64
2023-03-05T13:25:22.761Z,75.37
2023-03-05T13:26:56.879Z,72.30
2023-03-05T13:28:31.374Z,75.60
2023-03-05T13:30:05.122Z,75.30
2023-03-05T13:31:43.172Z,75.19
2023-03-05T13:33:20.594Z,74.98
2023-03-05T13:34:56.387Z,71.51
2023-03-05T13:36:29.741Z,73.72
2023-03-05T13:38:04.508Z,71.36
2023-03-05T13:39:44.382Z,73.31
2023-03-05T13:41:23.954Z,73.50
2023-03-05T13:43:12.047Z,72.95
2023-03-05T13:44:45.471Z,75.23
2023-03-05T13:46:27.151Z,71.07
2023-03-05T13:48:03.056Z,72.73
2023-03-05T13:49:36.457Z,73.21
2023-03-05T13:51:11.973Z,73.80
2023-03-05T13:52:45.425Z,72.14
2023-03-05T13:54:21.707Z,70.93
2023-03-05T13:55:57.922Z,71.59
2023-03-05T13:57:37.197Z,70.56
2023-03-05T13:59:18.962Z,71.48
2023-03-05T14:01:04.605Z,69.31
2023-03-05T14:02:38.097Z,72.52
2023-03-05T14:04:22.021Z,72.65
2023-03-05T14:05:55.843Z,71.96
2023-03-05T14:07:34.653Z,71.90
2023-03-05T14:09:09.873Z,71.37
2023-03-05T14:10:45.479Z,69.40
2023-03-05T14:12:30.444Z,68.22
2023-03-05T14:14:10.895Z,69.91
2023-03-05T14:16:04.223Z,69.13
2023-03-05T14:17:42.822Z,65.13
2023-03-05T14:19:34.867Z,63.90
2023-03-05T14:21:10.307Z,67.29
2023-03-05T14:22:46.144Z,68.62
2023-03-05T14:24:23.844Z,67.50
2023-03-05T14:26:19.216Z,69.01
2023-03-05T14:27:53.203Z,68.27
2023-03-05T14:29:29.271Z,67.92
2023-03-05T14:31:02.568Z,65.93
2023-03-05T14:32:38.622Z,67.58
2023-03-05T14:34:22.096Z,66.56
2023-03-05T14:35:57.807Z,67.45
2023-03-05T14:37:35.552Z,68.00
2023-03-05T14:39:09.322Z,69.01
2023-03-05T14:40:42.657Z,69.08
2023-03-05T14:42:33.489Z,65.40
2023-03-05T14:44:15.745Z,65.59
2023-03-05T14:45:49.392Z,64.94
2023-03-05T14:47:22.524Z,66.74
2023-03-05T14:48:55.769Z,66.89
2023-03-05T14:50:31.115Z,65.95
2023-03-05T14:52:06.762Z,65.87
2023-03-05T14:53:46.917Z,66.65
2023-03-05T14:55:22.938Z,65.41
2023-03-05T14:56:56.383Z,65.53
2023-03-05T14:58:35.533Z,64.35
2023-03-05T15:00:18.014Z,62.87
2023-03-05T15:01:51.508Z,64.86
2023-03-05T15:03:25.803Z,65.33
2023-03-05T15:04:59.558Z,65.72
2023-03-05T15:06:36.749Z,65.38
2023-03-05T15:08:16.021Z,64.44
2023-03-05T15:09:49.576Z,65.72
2023-03-05T15:11:23.289Z,65.68
2023-03-05T15:12:56.513Z,66.49
2023-03-05T15:14:31.377Z,66.30
2023-03-05T15:16:06.683Z,66.33
2023-03-05T15:17:43.595Z,66.98
2023-03-05T15:19:20.553Z,68.08
2023-03-05T15:20:54.896Z,68.56
2023-03-05T15:22:28.498Z,69.24
2023-03-05T15:24:01.800Z,66.75
2023-03-05T15:25:35.284Z,68.54
2023-03-05T15:27:08.470Z,68.27
2023-03-05T15:28:43.131Z,67.70
2023-03-05T15:30:23.343Z,66.59
2023-03-05T15:31:56.485Z,68.18
2023-03-05T15:33:30.486Z,67.68
2023-03-05T15:35:03.859Z,69.36
2023-03-05T15:36:37.009Z,69.30
2023-03-05T15:38:10.256Z,69.26
2023-03-05T15:39:43.628Z,68.86
2023-03-05T15:41:17.935Z,69.49
2023-03-05T15:42:52.158Z,70.59
2023-03-05T15:44:25.518Z,70.44
2023-03-05T15:46:00.254Z,71.30
2023-03-05T15:47:33.947Z,70.83
2023-03-05T15:49:07.424Z,70.95
2023-03-05T15:50:43.040Z,71.01
2023-03-05T15:52:16.607Z,71.61
2023-03-05T15:53:50.063Z,72.07
2023-03-05T15:55:23.507Z,73.00
2023-03-05T15:56:56.640Z,73.50
2023-03-05T15:58:29.786Z,74.41
2023-03-05T16:00:03.388Z,74.98
2023-03-05T16:01:49.065Z,75.48
2023-03-05T16:03:23.181Z,75.68
2023-03-05T16:04:56.779Z,76.23
2023-03-05T16:06:31.097Z,76.94
2023-03-05T16:08:04.671Z,77.23
2023-03-05T16:09:40.455Z,77.40
2023-03-05T16:11:17.442Z,78.28
2023-03-05T16:12:54.659Z,78.95
2023-03-05T16:14:30.016Z,80.03
2023-03-05T16:16:05.965Z,81.81
2023-03-05T16:17:53.870Z,84.70
2023-03-05T16:19:29.531Z,83.32
2023-03-05T16:21:03.187Z,84.29
2023-03-05T16:22:36.490Z,83.60
2023-03-05T16:24:09.931Z,85.12
2023-03-05T16:25:43.429Z,85.49
2023-03-05T16:27:17.718Z,86.69
2023-03-05T16:28:50.997Z,86.93
2023-03-05T16:30:24.744Z,88.68
2023-03-05T16:31:58.316Z,88.96
2023-03-05T16:33:35.239Z,90.61
2023-03-05T16:35:11.993Z,89.90
2023-03-05T16:36:50.861Z,89.13
2023-03-05T16:38:24.048Z,88.90
2023-03-05T16:40:00.181Z,89.15
2023-03-05T16:41:33.735Z,89.28
2023-03-05T16:43:07.293Z,89.24
2023-03-05T16:44:40.877Z,89.77
2023-03-05T16:46:15.522Z,89.58
2023-03-05T16:47:48.694Z,88.92
2023-03-05T16:49:24.231Z,90.12
2023-03-05T16:50:57.957Z,90.06
2023-03-05T16:52:31.823Z,90.33
2023-03-05T16:54:05.426Z,89.84
2023-03-05T16:55:39.251Z,90.51
2023-03-05T16:57:12.729Z,90.32
2023-03-05T16:58:45.978Z,90.81
2023-03-05T17:00:22.085Z,90.62
2023-03-05T17:01:55.556Z,90.75
2023-03-05T17:03:30.155Z,91.25
2023-03-05T17:05:05.230Z,90.74
2023-03-05T17:06:39.054Z,91.11
2023-03-05T17:08:12.326Z,90.79
2023-03-05T17:09:46.623Z,91.31
2023-03-05T17:11:20.865Z,91.91
2023-03-05T17:12:54.688Z,92.18
2023-03-05T17:14:28.156Z,92.30
2023-03-05T17:16:01.390Z,92.46
2023-03-05T17:17:34.987Z,92.94
2023-03-05T17:19:08.289Z,92.80
2023-03-05T17:20:43.180Z,93.91
2023-03-05T17:22:16.695Z,94.40
2023-03-05T17:23:50.339Z,95.18
2023-03-05T17:25:23.624Z,94.90
2023-03-05T17:26:57.292Z,95.57
2023-03-05T17:28:30.396Z,95.02
2023-03-05T17:30:04.014Z,96.66
2023-03-05T17:31:37.375Z,97.29
2023-03-05T17:33:11.432Z,97.86
2023-03-05T17:34:44.834Z,97.39
2023-03-05T17:36:21.719Z,97.54
2023-03-05T17:37:55.426Z,97.78
2023-03-05T17:39:28.834Z,97.86
2023-03-05T17:41:03.616Z,98.05
2023-03-05T17:42:38.546Z,98.65
2023-03-05T17:44:12.689Z,99.38
2023-03-05T17:45:47.407Z,99.25
2023-03-05T17:47:26.613Z,99.78
2023-03-05T17:49:01.554Z,99.96
2023-03-05T17:50:36.409Z,100.00
2023-03-05T17:52:12.185Z,100.00
2023-03-05T17:53:48.016Z,100.00
2023-03-05T17:55:29.121Z,100.00
2023-03-05T17:57:03.543Z,100.00
2023-03-05T17:58:39.717Z,100.00
2023-03-05T18:00:18.138Z,100.00
2023-03-05T18:01:51.845Z,100.00
2023-03-05T18:03:26.897Z,100.00
2023-03-05T18:05:22.901Z,100.00
2023-03-05T18:06:57.961Z,100.00
2023-03-05T18:08:33.426Z,100.00
2023-03-05T18:10:09.284Z,100.00
2023-03-05T18:11:42.515Z,100.00
2023-03-05T18:13:16.616Z,100.00
2023-03-05T18:14:51.133Z,100.00
2023-03-05T18:16:25.638Z,100.00
2023-03-05T18:17:59.685Z,100.00
2023-03-05T18:19:33.071Z,100.00
2023-03-05T18:21:08.044Z,100.00
2023-03-05T18:22:41.903Z,100.00
2023-03-05T18:24:18.806Z,100.00
2023-03-05T18:25:52.395Z,100.00
2023-03-05T18:27:25.812Z,100.00
2023-03-05T18:29:00.606Z,100.00
2023-03-05T18:30:34.837Z,100.00
2023-03-05T18:32:09.842Z,100.00
2023-03-05T18:33:44.918Z,100.00
2023-03-05T18:35:19.023Z,100.00
2023-03-05T18:36:52.502Z,100.00
2023-03-05T18:38:27.890Z,100.00
2023-03-05T18:40:03.277Z,100.00
2023-03-05T18:41:37.374Z,100.00
2023-03-05T18:43:11.404Z,100.00
2023-03-05T18:44:44.675Z,100.00
2023-03-05T18:46:18.204Z,100.00
2023-03-05T18:47:54.438Z,100.00
2023-03-05T18:49:29.119Z,100.00
2023-03-05T18:51:02.532Z,100.00
2023-03-05T18:52:35.693Z,100.00
2023-03-05T18:54:09.654Z,100.00
2023-03-05T18:55:45.179Z,100.00
2023-03-05T18:57:18.514Z,100.00
2023-03-05T18:58:51.998Z,100.00
2023-03-05T19:00:27.772Z,100.00
2023-03-05T19:02:00.965Z,100.00
2023-03-05T19:03:35.049Z,100.00
2023-03-05T19:05:08.832Z,100.00
2023-03-05T19:06:42.162Z,100.00
2023-03-05T19:08:15.427Z,100.00
2023-03-05T19:09:58.931Z,100.00
2023-03-05T19:11:34.158Z,100.00
2023-03-05T19:13:40.012Z,100.00
2023-03-05T19:15:14.722Z,100.00
2023-03-05T19:16:48.331Z,100.00
2023-03-05T19:18:55.656Z,100.00
2023-03-05T19:20:32.325Z,100.00
2023-03-05T19:22:05.525Z,100.00
2023-03-05T19:23:38.771Z,100.00
2023-03-05T19:25:13.164Z,100.00
2023-03-05T19:26:48.673Z,100.00
2023-03-05T19:28:22.375Z,100.00
2023-03-05T19:29:55.706Z,100.00
2023-03-05T19:31:29.018Z,100.00
2023-03-05T19:33:03.757Z,100.00
2023-03-05T19:34:37.552Z,100.00
2023-03-05T19:36:12.245Z,100.00
2023-03-05T19:37:46.311Z,100.00
2023-03-05T19:39:20.338Z,100.00
2023-03-05T19:40:53.562Z,100.00
2023-03-05T19:42:28.439Z,100.00
2023-03-05T19:44:02.030Z,100.00
2023-03-05T19:45:35.743Z,100.00
2023-03-05T19:47:11.512Z,100.00
2023-03-05T19:48:45.154Z,100.00
2023-03-05T19:50:18.506Z,100.00
2023-03-05T19:51:53.415Z,100.00
2023-03-05T19:53:26.872Z,100.00
2023-03-05T19:55:00.912Z,100.00
2023-03-05T19:56:34.338Z,100.00
2023-03-05T19:58:09.146Z,100.00
2023-03-05T19:59:44.143Z,100.00
2023-03-05T20:01:19.715Z,100.00
2023-03-05T20:02:52.867Z,100.00
2023-03-05T20:04:28.151Z,100.00
2023-03-05T20:06:01.493Z,100.00
2023-03-05T20:07:34.655Z,100.00
2023-03-05T20:09:08.225Z,100.00